Time;durP1;ratioP1;P1;durP2;ratioP2;P2;SDS_P1;SDS_P2;PMS_P1;PMS_P2;Temp;Humidity;BMP_temperature;BMP_pressure;BME280_temperature;BME280_humidity;BME280_pressure;Samples;Min_cycle;Max_cycle;Signal;HPM_P1;HPM_P2
2021/05/13 04:50:07;;;;;;;4.07;2.47;;;;;;;;;;6257436;22;20019;-79
2021/05/13 04:52:32;;;;;;;3.53;2.40;;;;;;;;;;6255363;23;20026;-79
2021/05/13 04:54:58;;;;;;;4.43;2.10;;;;;;;;;;6256966;23;20004;-79
2021/05/13 04:57:25;;;;;;;3.67;2.83;;;;;;;;;;6285480;22;20039;-79
2021/05/13 04:59:50;;;;;;;4.55;2.90;;;;;;;;;;6287013;22;19996;-79
2021/05/13 05:02:16;;;;;;;6.88;2.78;;;;;;;;;;6287619;22;20002;-80
2021/05/13 05:04:42;;;;;;;5.90;3.00;;;;;;;;;;6259920;22;19995;-79
2021/05/13 05:07:08;;;;;;;6.82;2.92;;;;;;;;;;6287223;22;19999;-79
2021/05/13 05:09:33;;;;;;;5.13;3.15;;;;;;;;;;6259033;22;20007;-79
2021/05/13 05:11:59;;;;;;;11.75;3.85;;;;;;;;;;6258765;22;20483;-79
2021/05/13 05:14:25;;;;;;;5.78;3.30;;;;;;;;;;6286182;22;19937;-79
2021/05/13 05:16:51;;;;;;;7.53;3.30;;;;;;;;;;6286018;22;20430;-79
2021/05/13 05:19:16;;;;;;;5.75;2.90;;;;;;;;;;6259624;22;20034;-80
2021/05/13 05:21:42;;;;;;;5.20;3.05;;;;;;;;;;6287400;22;20067;-79
2021/05/13 05:24:08;;;;;;;6.93;3.22;;;;;;;;;;6259208;22;19999;-79
2021/05/13 05:26:34;;;;;;;4.78;3.25;;;;;;;;;;6258467;22;20329;-79
2021/05/13 05:29:00;;;;;;;6.38;3.28;;;;;;;;;;6283983;22;20433;-80
2021/05/13 05:31:26;;;;;;;5.97;3.40;;;;;;;;;;6251423;22;20039;-80
2021/05/13 05:33:52;;;;;;;5.53;3.08;;;;;;;;;;6251947;22;20014;-79
2021/05/13 05:36:17;;;;;;;7.78;3.58;;;;;;;;;;6253489;22;20067;-79
2021/05/13 05:38:43;;;;;;;6.45;3.40;;;;;;;;;;6280597;22;20425;-80
2021/05/13 05:41:09;;;;;;;5.88;3.47;;;;;;;;;;6252758;22;20007;-79
2021/05/13 05:43:34;;;;;;;5.30;3.10;;;;;;;;;;6279786;22;20074;-80
2021/05/13 05:46:00;;;;;;;3.90;2.50;;;;;;;;;;6278697;22;20039;-80
2021/05/13 05:48:26;;;;;;;6.63;3.60;;;;;;;;;;6278949;22;20035;-80
2021/05/13 05:50:51;;;;;;;5.32;3.35;;;;;;;;;;6279334;22;20012;-80
2021/05/13 05:53:17;;;;;;;6.95;3.72;;;;;;;;;;6252017;22;20008;-80
2021/05/13 05:55:43;;;;;;;5.55;3.70;;;;;;;;;;6252008;22;20441;-80
2021/05/13 05:58:08;;;;;;;7.28;3.75;;;;;;;;;;6252151;22;20438;-80
2021/05/13 06:00:34;;;;;;;4.90;3.35;;;;;;;;;;6252003;22;20019;-79
2021/05/13 06:03:00;;;;;;;6.07;2.80;;;;;;;;;;6251669;22;20027;-79
2021/05/13 06:05:26;;;;;;;4.75;3.10;;;;;;;;;;6278698;22;20642;-79
2021/05/13 06:07:52;;;;;;;4.72;3.05;;;;;;;;;;6252148;22;20364;-80
2021/05/13 06:10:18;;;;;;;7.45;3.63;;;;;;;;;;6251018;22;20082;-80
2021/05/13 06:12:44;;;;;;;5.10;3.47;;;;;;;;;;6251040;22;20022;-82
2021/05/13 06:15:11;;;;;;;6.20;2.90;;;;;;;;;;6277821;22;20050;-80
2021/05/13 06:17:36;;;;;;;5.63;3.10;;;;;;;;;;6278444;22;19999;-80
2021/05/13 06:20:06;;;;;;;8.40;3.92;;;;;;;;;;6250729;22;20445;-80
2021/05/13 06:22:32;;;;;;;4.28;2.97;;;;;;;;;;6278623;22;20007;-80
2021/05/13 06:24:57;;;;;;;4.22;2.55;;;;;;;;;;6277691;22;20021;-80
2021/05/13 06:27:23;;;;;;;4.72;2.83;;;;;;;;;;6251188;22;20008;-80
2021/05/13 06:29:49;;;;;;;4.53;2.67;;;;;;;;;;6278302;22;19999;-79
2021/05/13 06:32:15;;;;;;;4.82;2.92;;;;;;;;;;6251297;22;20008;-79
2021/05/13 06:34:41;;;;;;;5.07;2.72;;;;;;;;;;6276863;22;20046;-80
2021/05/13 06:37:07;;;;;;;5.13;2.55;;;;;;;;;;6277519;22;20030;-79
2021/05/13 06:39:32;;;;;;;5.85;3.15;;;;;;;;;;6277649;22;20443;-80
2021/05/13 06:42:02;;;;;;;6.90;2.85;;;;;;;;;;6249518;22;20007;-79
2021/05/13 06:44:27;;;;;;;5.32;2.42;;;;;;;;;;6277413;22;20003;-80
2021/05/13 06:46:53;;;;;;;6.65;2.67;;;;;;;;;;6250158;22;20011;-80
2021/05/13 06:49:19;;;;;;;4.35;2.65;;;;;;;;;;6276938;22;20074;-80
2021/05/13 06:51:46;;;;;;;7.57;2.85;;;;;;;;;;6276705;22;20030;-80
2021/05/13 06:54:11;;;;;;;4.45;2.42;;;;;;;;;;6277554;22;20065;-80
2021/05/13 06:56:37;;;;;;;4.03;2.50;;;;;;;;;;6277659;22;19999;-80
2021/05/13 06:59:03;;;;;;;7.80;2.47;;;;;;;;;;6278316;22;20004;-80
2021/05/13 07:01:29;;;;;;;4.70;2.20;;;;;;;;;;6250463;22;20026;-80
2021/05/13 07:03:55;;;;;;;4.03;2.60;;;;;;;;;;6276573;22;20004;-80
2021/05/13 07:06:20;;;;;;;3.53;2.08;;;;;;;;;;6278459;22;20023;-84
2021/05/13 07:08:46;;;;;;;5.93;2.42;;;;;;;;;;6251813;22;20012;-83
2021/05/13 07:11:12;;;;;;;3.92;2.33;;;;;;;;;;6281227;22;20038;-82
2021/05/13 07:13:37;;;;;;;5.72;2.70;;;;;;;;;;6276831;22;20026;-82
2021/05/13 07:16:03;;;;;;;6.72;2.65;;;;;;;;;;6249195;22;20038;-82
2021/05/13 07:18:29;;;;;;;6.20;2.00;;;;;;;;;;6275702;22;20003;-82
2021/05/13 07:20:55;;;;;;;5.43;2.25;;;;;;;;;;6248759;22;20456;-82
2021/05/13 07:23:21;;;;;;;5.55;1.63;;;;;;;;;;6248968;22;20007;-83
2021/05/13 07:25:47;;;;;;;3.88;2.20;;;;;;;;;;6276471;22;20087;-81
2021/05/13 07:28:13;;;;;;;4.88;2.22;;;;;;;;;;6249696;22;20026;-81
2021/05/13 07:30:39;;;;;;;5.38;1.92;;;;;;;;;;6250231;22;20010;-81
2021/05/13 07:35:24;;;;;;;9.50;2.42;;;;;;;;;;5107657;27;20352;-80
2021/05/13 07:37:50;;;;;;;4.05;1.98;;;;;;;;;;5106975;27;20028;-81
2021/05/13 07:40:17;;;;;;;5.10;2.10;;;;;;;;;;5101052;28;20020;-81
2021/05/13 07:42:43;;;;;;;9.63;3.30;;;;;;;;;;5104741;28;20082;-81
2021/05/13 07:45:09;;;;;;;3.80;1.80;;;;;;;;;;5096621;28;20122;-81
2021/05/13 07:47:37;;;;;;;6.13;1.88;;;;;;;;;;5101846;28;20050;-81
2021/05/13 07:50:05;;;;;;;3.97;1.70;;;;;;;;;;5099351;28;20565;-80
2021/05/13 07:52:30;;;;;;;4.60;1.23;;;;;;;;;;5099418;28;20183;-81
2021/05/13 07:54:56;;;;;;;6.60;2.10;;;;;;;;;;5094523;28;20099;-80
2021/05/13 07:57:21;;;;;;;2.92;1.48;;;;;;;;;;5100984;28;20031;-80
2021/05/13 07:59:47;;;;;;;6.47;1.55;;;;;;;;;;5108620;27;20115;-81
2021/05/13 08:02:13;;;;;;;5.68;1.85;;;;;;;;;;5100214;28;20460;-81
2021/05/13 08:04:38;;;;;;;6.18;1.60;;;;;;;;;;5101888;28;20691;-80
2021/05/13 08:07:04;;;;;;;5.07;1.85;;;;;;;;;;5096429;28;20095;-81
2021/05/13 08:09:30;;;;;;;9.05;1.98;;;;;;;;;;5106072;28;20017;-82
2021/05/13 08:11:55;;;;;;;7.90;1.83;;;;;;;;;;5102606;28;20110;-81
2021/05/13 08:14:21;;;;;;;3.25;1.20;;;;;;;;;;5103229;28;20031;-81
2021/05/13 08:16:46;;;;;;;3.97;1.30;;;;;;;;;;5105061;27;20027;-80
2021/05/13 08:19:12;;;;;;;5.70;1.70;;;;;;;;;;5116822;28;20027;-82
2021/05/13 08:21:38;;;;;;;6.97;1.95;;;;;;;;;;5121056;28;20035;-81
2021/05/13 08:24:04;;;;;;;4.57;1.92;;;;;;;;;;5109504;28;20446;-81
2021/05/13 08:26:29;;;;;;;3.22;1.20;;;;;;;;;;5119921;28;20376;-81
2021/05/13 08:28:55;;;;;;;4.20;1.48;;;;;;;;;;5109123;28;20021;-81
2021/05/13 08:31:21;;;;;;;2.90;1.33;;;;;;;;;;5119271;28;20043;-80
2021/05/13 08:33:47;;;;;;;3.80;1.45;;;;;;;;;;5111349;28;20041;-80
2021/05/13 08:36:12;;;;;;;5.03;1.30;;;;;;;;;;5119448;28;20054;-81
2021/05/13 08:38:38;;;;;;;3.53;1.38;;;;;;;;;;5108934;27;20106;-81
2021/05/13 08:41:05;;;;;;;10.32;1.77;;;;;;;;;;5110702;27;20095;-81
2021/05/13 08:43:31;;;;;;;3.85;1.10;;;;;;;;;;5106576;28;20027;-80
2021/05/13 08:45:57;;;;;;;6.28;1.50;;;;;;;;;;5105466;28;20534;-80
2021/05/13 08:48:28;;;;;;;3.55;1.30;;;;;;;;;;5096963;28;20023;-80
2021/05/13 08:50:54;;;;;;;4.75;1.42;;;;;;;;;;5103188;28;20022;-80
2021/05/13 08:53:20;;;;;;;5.95;1.20;;;;;;;;;;5102418;28;20057;-80
2021/05/13 08:55:46;;;;;;;3.05;1.40;;;;;;;;;;5101257;28;20020;-80
2021/05/13 08:58:12;;;;;;;5.18;1.27;;;;;;;;;;5089453;28;20029;-81
2021/05/13 09:00:37;;;;;;;4.43;1.20;;;;;;;;;;5084266;28;20055;-81
2021/05/13 09:03:03;;;;;;;4.10;1.10;;;;;;;;;;5093622;28;20803;-80
2021/05/13 09:05:29;;;;;;;3.38;1.10;;;;;;;;;;5098584;28;20016;-80
2021/05/13 09:07:55;;;;;;;3.58;1.20;;;;;;;;;;5097540;28;20119;-80
2021/05/13 09:10:22;;;;;;;5.30;1.35;;;;;;;;;;5099771;28;20060;-80
2021/05/13 09:12:49;;;;;;;2.90;1.02;;;;;;;;;;5090723;28;20040;-80
2021/05/13 09:15:20;;;;;;;4.07;1.20;;;;;;;;;;5103786;28;20472;-81
2021/05/13 09:17:47;;;;;;;5.45;1.33;;;;;;;;;;5084501;28;20043;-80
2021/05/13 09:20:25;;;;;;;3.40;1.23;;;;;;;;;;5101281;28;20467;-81
2021/05/13 09:22:51;;;;;;;4.13;1.15;;;;;;;;;;5094377;28;20023;-80
2021/05/13 09:25:17;;;;;;;2.88;1.00;;;;;;;;;;5099087;28;20046;-81
